createdAt,value
2023-05-23T00:00:38.254Z,100.00
2023-05-23T00:03:08.980Z,100.00
2023-05-23T00:05:39.859Z,100.00
2023-05-23T00:08:10.810Z,100.00
2023-05-23T00:10:43.997Z,100.00
2023-05-23T00:13:15.344Z,100.00
2023-05-23T00:15:46.887Z,100.00
2023-05-23T00:18:17.866Z,100.00
2023-05-23T00:20:48.936Z,100.00
2023-05-23T00:23:22.739Z,100.00
2023-05-23T00:25:56.180Z,100.00
2023-05-23T00:28:26.838Z,100.00
2023-05-23T00:30:57.451Z,100.00
2023-05-23T00:33:29.977Z,100.00
2023-05-23T00:36:00.847Z,100.00
2023-05-23T00:38:31.590Z,100.00
2023-05-23T00:41:05.867Z,100.00
2023-05-23T00:43:37.031Z,100.00
2023-05-23T00:46:08.763Z,100.00
2023-05-23T00:48:40.001Z,100.00
2023-05-23T00:51:10.990Z,100.00
2023-05-23T00:53:41.871Z,100.00
2023-05-23T00:56:15.471Z,100.00
2023-05-23T00:58:46.107Z,100.00
2023-05-23T01:01:18.052Z,100.00
2023-05-23T01:03:48.904Z,100.00
2023-05-23T01:06:20.482Z,100.00
2023-05-23T01:08:51.117Z,100.00
2023-05-23T01:11:30.872Z,100.00
2023-05-23T01:14:06.305Z,100.00
2023-05-23T01:16:48.908Z,100.00
2023-05-23T01:19:52.112Z,100.00
2023-05-23T01:22:36.200Z,100.00
2023-05-23T01:25:14.842Z,100.00
2023-05-23T01:27:54.255Z,100.00
2023-05-23T01:30:26.356Z,100.00
2023-05-23T01:32:59.561Z,100.00
2023-05-23T01:35:31.256Z,100.00
2023-05-23T01:38:01.976Z,100.00
2023-05-23T01:40:32.943Z,100.00
2023-05-23T01:43:06.475Z,100.00
2023-05-23T01:45:38.114Z,100.00
2023-05-23T01:48:10.108Z,100.00
2023-05-23T01:50:42.147Z,100.00
2023-05-23T01:53:14.987Z,100.00
2023-05-23T01:55:46.598Z,100.00
2023-05-23T01:58:20.614Z,100.00
2023-05-23T02:00:51.330Z,100.00
2023-05-23T02:03:22.308Z,100.00
2023-05-23T02:05:53.674Z,100.00
2023-05-23T02:08:24.287Z,100.00
2023-05-23T02:10:54.947Z,100.00
2023-05-23T02:13:28.316Z,100.00
2023-05-23T02:15:58.911Z,100.00
2023-05-23T02:18:30.074Z,100.00
2023-05-23T02:21:00.680Z,100.00
2023-05-23T02:23:31.414Z,100.00
2023-05-23T02:26:02.122Z,100.00
2023-05-23T02:28:35.279Z,100.00
2023-05-23T02:31:06.306Z,100.00
2023-05-23T02:33:37.006Z,100.00
2023-05-23T02:36:08.319Z,100.00
2023-05-23T02:38:39.013Z,100.00
2023-05-23T02:41:09.637Z,100.00
2023-05-23T02:43:44.248Z,100.00
2023-05-23T02:46:16.461Z,100.00
2023-05-23T02:48:47.457Z,100.00
2023-05-23T02:51:18.021Z,100.00
2023-05-23T02:53:48.605Z,100.00
2023-05-23T02:56:20.430Z,100.00
2023-05-23T02:58:53.608Z,100.00
2023-05-23T03:01:24.454Z,100.00
2023-05-23T03:03:55.096Z,100.00
2023-05-23T03:06:27.741Z,100.00
2023-05-23T03:08:58.348Z,100.00
2023-05-23T03:11:30.003Z,100.00
2023-05-23T03:14:03.173Z,100.00
2023-05-23T03:16:33.796Z,100.00
2023-05-23T03:19:04.882Z,100.00
2023-05-23T03:21:36.373Z,100.00
2023-05-23T03:24:07.827Z,100.00
2023-05-23T03:26:38.351Z,100.00
2023-05-23T03:29:11.522Z,100.00
2023-05-23T03:31:42.135Z,100.00
2023-05-23T03:34:13.189Z,100.00
2023-05-23T03:36:43.874Z,100.00
2023-05-23T03:39:14.523Z,100.00
2023-05-23T03:41:45.088Z,100.00
2023-05-23T03:44:18.400Z,100.00
2023-05-23T03:46:49.093Z,100.00
2023-05-23T03:49:21.159Z,100.00
2023-05-23T03:51:51.758Z,100.00
2023-05-23T03:54:22.368Z,100.00
2023-05-23T03:56:53.022Z,100.00
2023-05-23T03:59:26.236Z,100.00
2023-05-23T04:01:58.992Z,100.00
2023-05-23T04:04:29.724Z,100.00
2023-05-23T04:07:01.801Z,100.00
2023-05-23T04:09:32.818Z,100.00
2023-05-23T04:12:03.978Z,100.00
2023-05-23T04:14:37.867Z,100.00
2023-05-23T04:17:09.314Z,100.00
2023-05-23T04:19:40.650Z,100.00
2023-05-23T04:22:11.301Z,100.00
2023-05-23T04:24:41.911Z,100.00
2023-05-23T04:27:13.891Z,100.00
2023-05-23T04:29:48.369Z,100.00
2023-05-23T04:32:23.243Z,100.00
2023-05-23T04:34:54.113Z,100.00
2023-05-23T04:37:26.529Z,100.00
2023-05-23T04:39:59.470Z,100.00
2023-05-23T04:42:46.391Z,100.00
2023-05-23T04:45:41.835Z,100.00
2023-05-23T04:48:30.167Z,100.00
2023-05-23T04:51:02.418Z,100.00
2023-05-23T04:53:33.879Z,100.00
2023-05-23T04:56:04.812Z,100.00
2023-05-23T04:58:35.811Z,100.00
2023-05-23T05:01:11.958Z,100.00
2023-05-23T05:03:42.712Z,100.00
2023-05-23T05:06:13.360Z,100.00
2023-05-23T05:08:43.983Z,100.00
2023-05-23T05:11:15.323Z,100.00
2023-05-23T05:13:45.985Z,100.00
2023-05-23T05:16:20.130Z,100.00
2023-05-23T05:18:51.685Z,100.00
2023-05-23T05:21:23.577Z,100.00
2023-05-23T05:23:54.655Z,100.00
2023-05-23T05:26:25.572Z,100.00
2023-05-23T05:28:57.122Z,100.00
2023-05-23T05:31:30.524Z,100.00
2023-05-23T05:34:01.292Z,100.00
2023-05-23T05:36:32.626Z,100.00
2023-05-23T05:39:03.436Z,100.00
2023-05-23T05:41:33.988Z,100.00
2023-05-23T05:44:04.525Z,100.00
2023-05-23T05:46:37.905Z,100.00
2023-05-23T05:49:10.196Z,100.00
2023-05-23T05:51:41.102Z,100.00
2023-05-23T05:54:11.975Z,100.00
2023-05-23T05:56:42.640Z,100.00
2023-05-23T05:59:14.370Z,100.00
2023-05-23T06:01:47.914Z,100.00
2023-05-23T06:04:18.793Z,100.00
2023-05-23T06:06:49.719Z,100.00
2023-05-23T06:09:20.258Z,100.00
2023-05-23T06:11:51.157Z,100.00
2023-05-23T06:14:22.458Z,100.00
2023-05-23T06:16:56.906Z,100.00
2023-05-23T06:19:27.598Z,100.00
2023-05-23T06:21:58.889Z,100.00
2023-05-23T06:24:29.575Z,100.00
2023-05-23T06:27:00.123Z,100.00
2023-05-23T06:29:31.416Z,100.00
2023-05-23T06:32:04.691Z,100.00
2023-05-23T06:34:35.554Z,100.00
2023-05-23T06:37:06.112Z,100.00
2023-05-23T06:39:36.659Z,100.00
2023-05-23T06:42:07.618Z,100.00
2023-05-23T06:44:53.560Z,100.00
2023-05-23T06:47:26.940Z,100.00
2023-05-23T06:49:57.546Z,100.00
2023-05-23T06:52:28.856Z,100.00
2023-05-23T06:55:00.449Z,100.00
2023-05-23T06:57:31.192Z,100.00
2023-05-23T07:00:01.809Z,100.00
2023-05-23T07:02:35.135Z,100.00
2023-05-23T07:05:09.609Z,100.00
2023-05-23T07:07:51.013Z,100.00
2023-05-23T07:10:21.923Z,100.00
2023-05-23T07:12:54.160Z,100.00
2023-05-23T07:15:26.180Z,100.00
2023-05-23T07:18:11.918Z,100.00
2023-05-23T07:20:42.690Z,100.00
2023-05-23T07:23:20.164Z,100.00
2023-05-23T07:26:01.785Z,100.00
2023-05-23T07:28:40.609Z,100.00
2023-05-23T07:31:12.228Z,100.00
2023-05-23T07:33:45.493Z,100.00
2023-05-23T07:36:22.575Z,100.00
2023-05-23T07:38:54.436Z,100.00
2023-05-23T07:41:25.226Z,100.00
2023-05-23T07:43:56.098Z,100.00
2023-05-23T07:46:26.763Z,100.00
2023-05-23T07:48:59.911Z,100.00
2023-05-23T07:51:31.067Z,100.00
2023-05-23T07:54:01.651Z,100.00
2023-05-23T07:56:32.601Z,100.00
2023-05-23T07:59:03.129Z,100.00
2023-05-23T08:01:33.980Z,100.00
2023-05-23T08:04:12.703Z,100.00
2023-05-23T08:07:04.190Z,100.00
2023-05-23T08:09:49.807Z,100.00
2023-05-23T08:12:23.098Z,100.00
2023-05-23T08:15:02.251Z,100.00
2023-05-23T08:17:36.893Z,100.00
2023-05-23T08:20:12.372Z,100.00
2023-05-23T08:22:43.190Z,100.00
2023-05-23T08:25:14.285Z,100.00
2023-05-23T08:27:44.840Z,100.00
2023-05-23T08:30:33.905Z,100.00
2023-05-23T08:33:05.082Z,100.00
2023-05-23T08:35:39.197Z,100.00
2023-05-23T08:38:13.828Z,100.00
2023-05-23T08:40:55.477Z,100.00
2023-05-23T08:43:27.669Z,100.00
2023-05-23T08:45:58.741Z,100.00
2023-05-23T08:48:32.573Z,100.00
2023-05-23T08:51:07.088Z,100.00
2023-05-23T08:53:41.352Z,100.00
2023-05-23T08:56:12.717Z,100.00
2023-05-23T08:58:48.753Z,100.00
2023-05-23T09:01:23.254Z,100.00
2023-05-23T09:04:00.494Z,100.00
2023-05-23T09:07:10.778Z,100.00
2023-05-23T09:09:41.893Z,100.00
2023-05-23T09:12:15.556Z,100.00
2023-05-23T09:14:49.339Z,100.00
2023-05-23T09:17:22.700Z,100.00
2023-05-23T09:19:55.554Z,100.00
2023-05-23T09:22:52.467Z,100.00
2023-05-23T09:25:23.322Z,100.00
2023-05-23T09:28:00.236Z,100.00
2023-05-23T09:30:31.786Z,100.00
2023-05-23T09:33:05.896Z,100.00
2023-05-23T09:35:37.726Z,100.00
2023-05-23T09:38:12.892Z,100.00
2023-05-23T09:40:49.344Z,99.96
2023-05-23T09:43:21.396Z,99.21
2023-05-23T09:45:57.706Z,98.12
2023-05-23T09:48:33.914Z,100.00
2023-05-23T09:51:08.744Z,100.00
2023-05-23T09:53:42.298Z,100.00
2023-05-23T09:56:15.588Z,99.11
2023-05-23T09:58:48.072Z,95.00
2023-05-23T10:01:19.830Z,91.39
2023-05-23T10:03:57.250Z,91.23
2023-05-23T10:06:34.822Z,82.69
2023-05-23T10:09:15.534Z,84.95
2023-05-23T10:12:22.208Z,83.99
2023-05-23T10:15:00.144Z,82.23
2023-05-23T10:17:39.495Z,82.65
2023-05-23T10:20:13.987Z,84.35
2023-05-23T10:22:45.993Z,84.08
2023-05-23T10:25:19.627Z,81.88
2023-05-23T10:27:54.273Z,76.27
2023-05-23T10:30:25.255Z,76.75
2023-05-23T10:32:57.086Z,75.34
2023-05-23T10:35:36.200Z,81.57
2023-05-23T10:38:15.937Z,80.54
2023-05-23T10:40:58.118Z,79.24
2023-05-23T10:43:34.041Z,79.33
2023-05-23T10:46:04.639Z,80.11
2023-05-23T10:48:43.786Z,79.62
2023-05-23T10:51:15.616Z,83.01
2023-05-23T10:53:47.939Z,85.56
2023-05-23T10:56:26.758Z,85.43
2023-05-23T10:59:00.310Z,81.16
2023-05-23T11:01:31.309Z,78.42
2023-05-23T11:04:08.159Z,76.75
2023-05-23T11:06:43.017Z,79.67
2023-05-23T11:09:16.888Z,80.09
2023-05-23T11:12:05.036Z,75.98
2023-05-23T11:14:38.568Z,71.09
2023-05-23T11:17:19.833Z,70.05
2023-05-23T11:20:13.484Z,68.58
2023-05-23T11:22:56.041Z,68.50
2023-05-23T11:25:44.763Z,69.05
2023-05-23T11:28:18.059Z,74.64
2023-05-23T11:30:51.261Z,75.90
2023-05-23T11:33:22.381Z,74.59
2023-05-23T11:35:54.167Z,72.29
2023-05-23T11:38:25.040Z,64.31
2023-05-23T11:40:55.624Z,59.40
2023-05-23T11:43:28.921Z,53.54
2023-05-23T11:45:59.484Z,54.45
2023-05-23T11:48:32.604Z,52.34
2023-05-23T11:51:03.232Z,56.75
2023-05-23T11:53:34.161Z,55.03
2023-05-23T11:56:06.316Z,53.56
2023-05-23T11:58:42.841Z,53.56
2023-05-23T12:01:14.773Z,55.15
2023-05-23T12:03:53.490Z,54.09
2023-05-23T12:06:25.182Z,55.06
2023-05-23T12:08:56.315Z,52.17
2023-05-23T12:11:26.979Z,58.04
2023-05-23T12:14:01.261Z,61.27
2023-05-23T12:16:32.933Z,58.96
2023-05-23T12:19:05.035Z,58.78
2023-05-23T12:21:45.935Z,58.08
2023-05-23T12:24:20.467Z,57.71
2023-05-23T12:26:52.654Z,57.44
2023-05-23T12:29:34.740Z,55.58
2023-05-23T12:32:07.318Z,58.55
2023-05-23T12:34:37.864Z,55.67
2023-05-23T12:39:42.738Z,51.78
2023-05-23T12:42:14.021Z,45.67
2023-05-23T12:44:48.859Z,47.83
2023-05-23T12:47:19.698Z,46.75
2023-05-23T12:49:50.305Z,47.35
2023-05-23T12:52:20.808Z,47.61
2023-05-23T12:54:51.538Z,46.60
2023-05-23T12:57:22.884Z,46.04
2023-05-23T12:59:55.986Z,43.15
2023-05-23T13:02:26.753Z,40.97
2023-05-23T13:04:57.399Z,44.77
2023-05-23T13:07:27.955Z,45.14
2023-05-23T13:09:58.577Z,46.73
2023-05-23T13:12:29.866Z,49.14
2023-05-23T13:15:03.167Z,50.95
2023-05-23T13:17:33.732Z,51.29
2023-05-23T13:20:05.378Z,48.68
2023-05-23T13:22:36.048Z,47.09
2023-05-23T13:25:07.545Z,44.39
2023-05-23T13:27:38.206Z,47.44
2023-05-23T13:30:12.790Z,46.93
2023-05-23T13:32:43.365Z,45.54
2023-05-23T13:35:14.061Z,43.40
2023-05-23T13:37:44.645Z,40.26
2023-05-23T13:40:20.679Z,39.89
2023-05-23T13:42:53.476Z,45.13
2023-05-23T13:45:26.817Z,48.20
2023-05-23T13:47:57.406Z,50.47
2023-05-23T13:50:28.371Z,51.74
2023-05-23T13:52:59.022Z,55.03
2023-05-23T13:55:29.719Z,60.19
2023-05-23T13:58:00.303Z,62.36
2023-05-23T14:00:33.489Z,62.90
2023-05-23T14:03:04.157Z,65.00
2023-05-23T14:05:34.786Z,64.90
2023-05-23T14:08:05.349Z,64.88
2023-05-23T14:10:36.166Z,66.69
2023-05-23T14:13:07.049Z,65.75
2023-05-23T14:15:42.690Z,63.34
2023-05-23T14:18:13.443Z,64.18
2023-05-23T14:20:43.994Z,61.54
2023-05-23T14:23:16.670Z,64.45
2023-05-23T14:25:47.173Z,61.58
2023-05-23T14:28:17.844Z,58.31
2023-05-23T14:30:51.219Z,55.54
2023-05-23T14:33:21.828Z,55.16
2023-05-23T14:35:53.096Z,52.31
2023-05-23T14:38:23.632Z,53.74
2023-05-23T14:40:54.801Z,54.81
2023-05-23T14:43:25.318Z,58.36
2023-05-23T14:45:58.589Z,59.30
2023-05-23T14:48:29.145Z,59.17
2023-05-23T14:51:01.801Z,58.49
2023-05-23T14:56:03.593Z,57.11
2023-05-23T14:58:34.183Z,59.81
2023-05-23T15:01:07.635Z,64.44
2023-05-23T15:03:38.532Z,63.34
2023-05-23T15:06:09.572Z,61.16
2023-05-23T15:08:40.431Z,63.89
2023-05-23T15:11:11.205Z,63.66
2023-05-23T15:13:41.742Z,64.18
2023-05-23T15:16:18.216Z,63.46
2023-05-23T15:18:51.466Z,61.83
2023-05-23T15:21:22.105Z,60.59
2023-05-23T15:23:52.662Z,60.11
2023-05-23T15:26:28.389Z,58.98
2023-05-23T15:28:59.299Z,55.58
2023-05-23T15:31:33.492Z,51.86
2023-05-23T15:34:04.616Z,49.37
2023-05-23T15:36:35.241Z,48.57
2023-05-23T15:39:06.355Z,48.69
2023-05-23T15:41:36.931Z,53.24
2023-05-23T15:44:07.803Z,54.88
2023-05-23T15:46:40.943Z,55.46
2023-05-23T15:49:24.508Z,56.37
2023-05-23T15:51:56.860Z,56.28
2023-05-23T15:54:27.393Z,57.23
2023-05-23T15:56:57.972Z,60.43
2023-05-23T15:59:28.577Z,58.60
2023-05-23T16:02:05.463Z,57.68
2023-05-23T16:04:36.231Z,50.30
2023-05-23T16:07:07.093Z,48.04
2023-05-23T16:09:37.623Z,47.92
2023-05-23T16:12:08.920Z,48.97
2023-05-23T16:14:39.502Z,47.70
2023-05-23T16:17:12.713Z,49.51
2023-05-23T16:19:43.432Z,48.71
2023-05-23T16:22:15.883Z,46.81
2023-05-23T16:24:46.514Z,45.85
2023-05-23T16:27:17.204Z,43.22
2023-05-23T16:29:54.271Z,43.74
2023-05-23T16:32:27.427Z,43.10
2023-05-23T16:34:58.285Z,43.34
2023-05-23T16:37:28.824Z,46.52
2023-05-23T16:39:59.366Z,46.73
2023-05-23T16:42:30.066Z,45.18
2023-05-23T16:45:00.714Z,46.05
2023-05-23T16:47:33.920Z,46.23
2023-05-23T16:50:05.129Z,47.40
2023-05-23T16:52:35.710Z,49.83
2023-05-23T16:55:07.188Z,49.39
2023-05-23T16:57:37.705Z,47.68
2023-05-23T17:00:09.334Z,50.06
2023-05-23T17:02:42.669Z,49.12
2023-05-23T17:05:13.357Z,51.32
2023-05-23T17:07:43.938Z,56.05
2023-05-23T17:10:14.972Z,62.18
2023-05-23T17:12:45.481Z,68.45
2023-05-23T17:15:15.999Z,63.60
2023-05-23T17:17:49.775Z,63.33
2023-05-23T17:20:24.144Z,58.89
2023-05-23T17:22:54.945Z,57.61
2023-05-23T17:25:25.678Z,57.98
2023-05-23T17:27:56.928Z,60.19
2023-05-23T17:30:28.486Z,60.03
2023-05-23T17:33:01.657Z,61.17
2023-05-23T17:35:32.577Z,61.62
2023-05-23T17:38:03.146Z,63.12
2023-05-23T17:40:33.850Z,71.10
2023-05-23T17:43:04.393Z,73.80
2023-05-23T17:45:34.961Z,79.99
2023-05-23T17:48:08.214Z,82.36
2023-05-23T17:50:38.752Z,82.88
2023-05-23T17:53:09.656Z,84.10
2023-05-23T17:55:40.207Z,85.63
2023-05-23T17:58:10.851Z,85.91
2023-05-23T18:00:41.683Z,87.61
2023-05-23T18:03:14.920Z,87.98
2023-05-23T18:05:45.671Z,90.41
2023-05-23T18:08:16.594Z,91.66
2023-05-23T18:10:47.913Z,94.37
2023-05-23T18:13:19.183Z,94.91
2023-05-23T18:15:49.808Z,96.54
2023-05-23T18:18:23.024Z,97.68
2023-05-23T18:20:53.698Z,98.14
2023-05-23T18:23:25.005Z,97.12
2023-05-23T18:25:55.503Z,97.87
2023-05-23T18:28:26.120Z,98.46
2023-05-23T18:30:56.683Z,99.22
2023-05-23T18:33:30.344Z,100.00
2023-05-23T18:36:01.421Z,100.00
2023-05-23T18:38:32.029Z,100.00
2023-05-23T18:41:02.661Z,100.00
2023-05-23T18:43:33.218Z,100.00
2023-05-23T18:46:03.859Z,100.00
2023-05-23T18:48:37.076Z,100.00
2023-05-23T18:51:08.628Z,100.00
2023-05-23T18:53:40.813Z,100.00
2023-05-23T18:56:12.879Z,100.00
2023-05-23T18:58:45.333Z,100.00
2023-05-23T19:01:17.272Z,100.00
2023-05-23T19:03:50.475Z,100.00
2023-05-23T19:06:21.264Z,100.00
2023-05-23T19:08:51.822Z,100.00
2023-05-23T19:11:22.750Z,100.00
2023-05-23T19:13:53.309Z,100.00
2023-05-23T19:16:24.214Z,100.00
2023-05-23T19:18:57.539Z,100.00
2023-05-23T19:21:28.492Z,100.00
2023-05-23T19:23:59.323Z,100.00
2023-05-23T19:26:30.123Z,100.00
2023-05-23T19:29:00.798Z,100.00
2023-05-23T19:31:31.860Z,100.00
2023-05-23T19:34:05.087Z,100.00
2023-05-23T19:36:36.689Z,100.00
2023-05-23T19:39:07.485Z,100.00
2023-05-23T19:41:38.160Z,100.00
2023-05-23T19:44:08.711Z,100.00
2023-05-23T19:46:39.280Z,100.00
2023-05-23T19:49:13.810Z,100.00
2023-05-23T19:51:44.392Z,100.00
2023-05-23T19:54:15.802Z,100.00
2023-05-23T19:56:46.378Z,100.00
2023-05-23T19:59:17.230Z,100.00
2023-05-23T20:01:47.834Z,100.00
2023-05-23T20:04:24.193Z,100.00
2023-05-23T20:06:56.161Z,100.00
2023-05-23T20:09:26.715Z,100.00
2023-05-23T20:11:57.282Z,100.00
2023-05-23T20:14:29.353Z,100.00
2023-05-23T20:17:00.075Z,100.00
2023-05-23T20:19:33.373Z,100.00
2023-05-23T20:22:04.199Z,100.00
2023-05-23T20:24:34.771Z,100.00
2023-05-23T20:27:05.314Z,100.00
2023-05-23T20:29:36.056Z,100.00
2023-05-23T20:32:06.946Z,100.00
2023-05-23T20:34:40.154Z,100.00
2023-05-23T20:37:13.856Z,100.00
2023-05-23T20:39:44.701Z,100.00
2023-05-23T20:42:15.356Z,100.00
2023-05-23T20:44:47.080Z,100.00
2023-05-23T20:47:18.457Z,100.00
2023-05-23T20:49:51.853Z,100.00
2023-05-23T20:52:23.081Z,100.00
2023-05-23T20:54:54.661Z,100.00
2023-05-23T20:57:25.294Z,100.00
2023-05-23T20:59:55.855Z,100.00
2023-05-23T21:02:26.943Z,100.00
2023-05-23T21:05:00.325Z,100.00
2023-05-23T21:07:30.921Z,100.00
2023-05-23T21:10:01.493Z,100.00
2023-05-23T21:12:32.144Z,100.00
2023-05-23T21:15:03.295Z,100.00
2023-05-23T21:17:33.953Z,100.00
2023-05-23T21:20:07.705Z,100.00
2023-05-23T21:22:38.289Z,100.00
2023-05-23T21:25:09.524Z,100.00
2023-05-23T21:27:40.225Z,100.00
2023-05-23T21:30:12.192Z,100.00
2023-05-23T21:32:43.669Z,100.00
2023-05-23T21:35:17.009Z,100.00
2023-05-23T21:37:47.546Z,100.00
2023-05-23T21:40:18.201Z,100.00
2023-05-23T21:42:48.770Z,100.00
2023-05-23T21:45:19.374Z,100.00
2023-05-23T21:47:49.996Z,100.00
2023-05-23T21:50:23.454Z,100.00
2023-05-23T21:52:54.322Z,100.00
2023-05-23T21:55:24.956Z,100.00
2023-05-23T21:57:55.780Z,100.00
2023-05-23T22:00:27.542Z,100.00
2023-05-23T22:02:58.212Z,100.00
2023-05-23T22:05:31.829Z,100.00
2023-05-23T22:08:02.352Z,100.00
2023-05-23T22:10:35.014Z,100.00
2023-05-23T22:13:06.098Z,100.00
2023-05-23T22:15:37.024Z,100.00
2023-05-23T22:18:08.035Z,100.00
2023-05-23T22:20:41.381Z,100.00
2023-05-23T22:23:16.975Z,100.00
2023-05-23T22:25:48.273Z,100.00
2023-05-23T22:28:18.921Z,100.00
2023-05-23T22:30:49.612Z,100.00
2023-05-23T22:33:20.398Z,100.00
2023-05-23T22:35:53.725Z,100.00
2023-05-23T22:38:24.376Z,100.00
2023-05-23T22:40:54.965Z,100.00
2023-05-23T22:43:25.784Z,100.00
2023-05-23T22:45:56.363Z,100.00
2023-05-23T22:48:28.431Z,100.00
2023-05-23T22:51:02.992Z,100.00
2023-05-23T22:53:33.890Z,100.00
2023-05-23T22:56:04.568Z,100.00
2023-05-23T22:58:35.148Z,100.00
2023-05-23T23:01:05.852Z,100.00
2023-05-23T23:03:36.568Z,100.00
2023-05-23T23:06:10.191Z,100.00
2023-05-23T23:08:40.967Z,100.00
2023-05-23T23:11:11.562Z,100.00
2023-05-23T23:13:42.193Z,100.00
2023-05-23T23:16:13.369Z,100.00
2023-05-23T23:18:44.098Z,100.00
2023-05-23T23:21:17.400Z,100.00
2023-05-23T23:23:48.083Z,100.00
2023-05-23T23:26:18.745Z,100.00
2023-05-23T23:28:49.441Z,100.00
2023-05-23T23:31:20.133Z,100.00
2023-05-23T23:33:50.818Z,100.00
2023-05-23T23:36:24.358Z,100.00
2023-05-23T23:38:54.952Z,100.00
2023-05-23T23:41:27.040Z,100.00
2023-05-23T23:43:57.609Z,100.00
2023-05-23T23:46:28.273Z,100.00
2023-05-23T23:48:58.869Z,100.00
2023-05-23T23:51:32.821Z,100.00
2023-05-23T23:54:03.640Z,100.00
2023-05-23T23:56:34.198Z,100.00
2023-05-23T23:59:04.894Z,100.00
